createdAt,value
2023-05-06T00:00:25.929Z,11.79
2023-05-06T00:03:29.320Z,11.74
2023-05-06T00:06:33.487Z,11.89
2023-05-06T00:09:36.296Z,12.06
2023-05-06T00:12:39.353Z,12.06
2023-05-06T00:15:42.282Z,11.97
2023-05-06T00:18:44.799Z,11.71
2023-05-06T00:21:47.975Z,11.54
2023-05-06T00:24:50.658Z,11.45
2023-05-06T00:27:53.834Z,11.38
2023-05-06T00:30:56.874Z,11.27
2023-05-06T00:33:59.978Z,11.33
2023-05-06T00:37:03.142Z,11.44
2023-05-06T00:40:06.931Z,11.63
2023-05-06T00:43:09.461Z,11.70
2023-05-06T00:46:15.770Z,11.66
2023-05-06T00:49:19.222Z,11.60
2023-05-06T00:52:22.790Z,11.53
2023-05-06T00:55:26.230Z,11.49
2023-05-06T00:58:30.028Z,11.51
2023-05-06T01:01:33.468Z,11.36
2023-05-06T01:04:36.664Z,11.38
2023-05-06T01:08:06.533Z,11.28
2023-05-06T01:11:17.936Z,11.26
2023-05-06T01:14:36.296Z,11.23
2023-05-06T01:17:44.978Z,11.32
2023-05-06T01:20:52.051Z,11.32
2023-05-06T01:23:58.207Z,11.28
2023-05-06T01:27:01.540Z,11.13
2023-05-06T01:30:04.835Z,11.07
2023-05-06T01:33:39.830Z,11.06
2023-05-06T01:37:18.088Z,11.05
2023-05-06T01:40:26.581Z,10.99
2023-05-06T01:43:34.180Z,10.97
2023-05-06T01:46:36.909Z,10.87
2023-05-06T01:49:39.867Z,10.81
2023-05-06T01:52:42.552Z,10.77
2023-05-06T01:55:45.415Z,10.79
2023-05-06T01:58:48.388Z,10.76
2023-05-06T02:01:51.284Z,10.70
2023-05-06T02:04:54.469Z,10.69
2023-05-06T02:07:57.090Z,10.69
2023-05-06T02:11:00.205Z,10.75
2023-05-06T02:14:03.191Z,10.71
2023-05-06T02:17:06.601Z,10.67
2023-05-06T02:20:12.068Z,10.78
2023-05-06T02:23:15.712Z,10.78
2023-05-06T02:26:18.571Z,10.76
2023-05-06T02:29:21.060Z,10.68
2023-05-06T02:32:23.883Z,10.58
2023-05-06T02:35:26.615Z,10.50
2023-05-06T02:38:29.494Z,10.49
2023-05-06T02:41:31.982Z,10.34
2023-05-06T02:44:34.862Z,10.31
2023-05-06T02:47:37.446Z,10.27
2023-05-06T02:50:41.155Z,10.28
2023-05-06T02:53:43.723Z,10.31
2023-05-06T02:56:46.515Z,10.49
2023-05-06T02:59:49.379Z,10.61
2023-05-06T03:02:52.299Z,10.49
2023-05-06T03:05:54.891Z,10.46
2023-05-06T03:08:57.803Z,10.31
2023-05-06T03:12:00.540Z,10.22
2023-05-06T03:15:04.076Z,10.17
2023-05-06T03:18:07.099Z,10.27
2023-05-06T03:21:12.166Z,10.31
2023-05-06T03:24:16.036Z,10.36
2023-05-06T03:27:19.011Z,10.26
2023-05-06T03:30:22.276Z,10.16
2023-05-06T03:33:25.750Z,10.16
2023-05-06T03:36:29.542Z,10.16
2023-05-06T03:39:33.030Z,10.13
2023-05-06T03:42:36.405Z,10.13
2023-05-06T03:45:39.825Z,10.14
2023-05-06T03:48:42.451Z,10.23
2023-05-06T03:51:46.324Z,10.23
2023-05-06T03:54:49.865Z,10.25
2023-05-06T03:57:52.735Z,10.32
2023-05-06T04:00:55.827Z,10.36
2023-05-06T04:03:58.803Z,10.56
2023-05-06T04:07:02.018Z,10.67
2023-05-06T04:10:05.467Z,10.87
2023-05-06T04:13:08.245Z,11.03
2023-05-06T04:16:12.609Z,11.22
2023-05-06T04:19:17.905Z,11.22
2023-05-06T04:22:21.926Z,11.39
2023-05-06T04:25:24.811Z,11.48
2023-05-06T04:28:27.808Z,11.59
2023-05-06T04:31:30.621Z,11.74
2023-05-06T04:34:36.168Z,11.71
2023-05-06T04:37:39.258Z,11.72
2023-05-06T04:40:42.525Z,11.75
2023-05-06T04:43:45.434Z,11.87
2023-05-06T04:46:49.130Z,11.98
2023-05-06T04:49:51.820Z,12.15
2023-05-06T04:52:55.526Z,12.25
2023-05-06T04:55:58.414Z,12.40
2023-05-06T04:59:01.898Z,12.38
2023-05-06T05:02:04.822Z,12.57
2023-05-06T05:05:08.887Z,12.66
2023-05-06T05:08:13.397Z,12.66
2023-05-06T05:11:16.633Z,12.63
2023-05-06T05:14:19.306Z,12.90
2023-05-06T05:17:22.429Z,12.97
2023-05-06T05:20:25.398Z,13.07
2023-05-06T05:23:28.548Z,13.10
2023-05-06T05:26:31.108Z,12.91
2023-05-06T05:29:34.609Z,13.05
2023-05-06T05:32:38.284Z,13.19
2023-05-06T05:35:41.298Z,13.34
2023-05-06T05:38:44.282Z,13.29
2023-05-06T05:41:47.393Z,13.38
2023-05-06T05:44:50.610Z,13.57
2023-05-06T05:47:54.169Z,13.72
2023-05-06T05:50:57.685Z,13.75
2023-05-06T05:54:01.030Z,14.00
2023-05-06T05:57:04.047Z,14.27
2023-05-06T06:00:08.128Z,14.43
2023-05-06T06:03:19.563Z,14.68
2023-05-06T06:06:23.656Z,15.14
2023-05-06T06:09:26.623Z,15.46
2023-05-06T06:12:30.410Z,15.47
2023-05-06T06:15:33.213Z,15.68
2023-05-06T06:18:36.572Z,16.00
2023-05-06T06:21:39.231Z,16.25
2023-05-06T06:24:42.148Z,16.46
2023-05-06T06:27:44.675Z,16.77
2023-05-06T06:30:47.963Z,16.66
2023-05-06T06:33:50.749Z,17.03
2023-05-06T06:36:53.763Z,17.23
2023-05-06T06:39:56.355Z,17.26
2023-05-06T06:42:59.234Z,17.04
2023-05-06T06:46:04.806Z,17.47
2023-05-06T06:49:07.887Z,17.67
2023-05-06T06:52:10.522Z,17.63
2023-05-06T06:55:13.534Z,17.82
2023-05-06T06:58:16.366Z,18.31
2023-05-06T07:01:19.359Z,18.74
2023-05-06T07:04:21.910Z,19.03
2023-05-06T07:07:25.307Z,19.04
2023-05-06T07:10:27.948Z,19.59
2023-05-06T07:13:30.829Z,20.48
2023-05-06T07:16:33.842Z,21.27
2023-05-06T07:19:37.065Z,21.59
2023-05-06T07:22:41.329Z,21.91
2023-05-06T07:25:44.279Z,21.60
2023-05-06T07:28:46.958Z,22.82
2023-05-06T07:31:50.048Z,22.46
2023-05-06T07:34:52.675Z,22.83
2023-05-06T07:37:55.493Z,23.97
2023-05-06T07:40:58.078Z,24.08
2023-05-06T07:44:01.186Z,24.57
2023-05-06T07:47:04.339Z,25.01
2023-05-06T07:50:08.179Z,25.31
2023-05-06T07:53:11.798Z,24.90
2023-05-06T07:56:14.721Z,25.01
2023-05-06T07:59:17.372Z,24.99
2023-05-06T08:02:20.310Z,24.74
2023-05-06T08:05:23.209Z,24.63
2023-05-06T08:08:28.060Z,25.76
2023-05-06T08:11:31.065Z,25.70
2023-05-06T08:14:33.663Z,26.49
2023-05-06T08:17:36.501Z,26.97
2023-05-06T08:20:39.170Z,27.07
2023-05-06T08:23:42.169Z,26.73
2023-05-06T08:26:44.639Z,28.25
2023-05-06T08:29:47.437Z,26.39
2023-05-06T08:32:50.035Z,26.00
2023-05-06T08:35:52.925Z,27.45
2023-05-06T08:38:56.053Z,27.97
2023-05-06T08:42:02.107Z,28.86
2023-05-06T08:45:05.261Z,30.20
2023-05-06T08:48:08.435Z,28.53
2023-05-06T08:51:14.314Z,30.30
2023-05-06T08:54:18.101Z,29.46
2023-05-06T08:57:21.809Z,29.15
2023-05-06T09:00:24.940Z,28.92
2023-05-06T09:03:27.608Z,29.04
2023-05-06T09:06:31.391Z,29.26
2023-05-06T09:09:36.788Z,28.79
2023-05-06T09:12:40.063Z,28.30
2023-05-06T09:15:44.491Z,28.02
2023-05-06T09:18:47.562Z,28.69
2023-05-06T09:21:51.878Z,29.84
2023-05-06T09:24:56.858Z,29.36
2023-05-06T09:28:11.515Z,29.84
2023-05-06T09:31:15.839Z,30.07
2023-05-06T09:34:18.514Z,31.37
2023-05-06T09:37:21.397Z,30.34
2023-05-06T09:40:24.573Z,28.89
2023-05-06T09:43:27.529Z,31.41
2023-05-06T09:46:30.473Z,32.48
2023-05-06T09:49:33.587Z,31.86
2023-05-06T09:52:37.257Z,31.01
2023-05-06T09:55:41.526Z,28.62
2023-05-06T09:58:46.116Z,29.23
2023-05-06T10:01:49.377Z,29.91
2023-05-06T10:04:56.619Z,31.57
2023-05-06T10:08:02.568Z,31.01
2023-05-06T10:11:06.317Z,32.00
2023-05-06T10:14:10.149Z,32.52
2023-05-06T10:17:14.198Z,33.24
2023-05-06T10:20:17.652Z,34.57
2023-05-06T10:23:31.713Z,31.23
2023-05-06T10:26:37.218Z,31.81
2023-05-06T10:29:42.175Z,31.82
2023-05-06T10:32:46.129Z,32.43
2023-05-06T10:36:01.206Z,30.19
2023-05-06T10:39:04.795Z,30.01
2023-05-06T10:42:10.748Z,29.06
2023-05-06T10:45:15.333Z,27.17
2023-05-06T10:48:18.369Z,26.39
2023-05-06T10:51:27.365Z,25.97
2023-05-06T10:54:30.229Z,26.59
2023-05-06T10:57:41.376Z,26.46
2023-05-06T11:00:54.918Z,26.59
2023-05-06T11:03:59.838Z,26.69
2023-05-06T11:07:12.357Z,27.22
2023-05-06T11:10:15.283Z,27.02
2023-05-06T11:13:29.538Z,27.13
2023-05-06T11:16:49.370Z,27.37
2023-05-06T11:20:18.285Z,26.31
2023-05-06T11:23:20.938Z,27.69
2023-05-06T11:26:24.469Z,27.67
2023-05-06T11:29:27.146Z,27.90
2023-05-06T11:32:32.776Z,26.22
2023-05-06T11:35:38.122Z,25.64
2023-05-06T11:38:48.111Z,25.77
2023-05-06T11:41:52.968Z,25.98
2023-05-06T11:45:00.641Z,25.73
2023-05-06T11:48:03.246Z,26.01
2023-05-06T11:51:06.186Z,25.17
2023-05-06T11:54:10.966Z,24.34
2023-05-06T11:57:14.282Z,23.98
2023-05-06T12:00:18.896Z,24.06
2023-05-06T12:03:23.484Z,23.88
2023-05-06T12:06:34.619Z,23.80
2023-05-06T12:09:39.408Z,23.78
2023-05-06T12:12:42.133Z,23.49
2023-05-06T12:15:45.876Z,23.38
2023-05-06T12:18:49.101Z,23.35
2023-05-06T12:21:52.389Z,23.54
2023-05-06T12:24:55.030Z,23.63
2023-05-06T12:27:59.035Z,23.88
2023-05-06T12:31:21.212Z,23.82
2023-05-06T12:34:38.242Z,23.65
2023-05-06T12:37:41.061Z,23.34
2023-05-06T12:40:52.439Z,22.91
2023-05-06T12:43:55.445Z,22.99
2023-05-06T12:46:59.880Z,23.19
2023-05-06T12:50:02.648Z,23.06
2023-05-06T12:53:07.232Z,23.16
2023-05-06T12:56:09.786Z,23.22
2023-05-06T12:59:13.892Z,23.92
2023-05-06T13:02:16.895Z,24.39
2023-05-06T13:05:19.793Z,24.03
2023-05-06T13:08:22.642Z,23.73
2023-05-06T13:11:25.920Z,23.36
2023-05-06T13:14:28.387Z,23.57
2023-05-06T13:17:32.055Z,23.22
2023-05-06T13:20:34.770Z,23.13
2023-05-06T13:23:40.105Z,22.92
2023-05-06T13:26:42.836Z,22.54
2023-05-06T13:29:45.783Z,22.28
2023-05-06T13:32:48.709Z,22.21
2023-05-06T13:35:51.671Z,22.23
2023-05-06T13:38:54.522Z,22.13
2023-05-06T13:41:57.450Z,21.97
2023-05-06T13:45:00.216Z,21.24
2023-05-06T13:48:06.311Z,20.85
2023-05-06T13:51:12.441Z,20.54
2023-05-06T13:54:20.053Z,20.54
2023-05-06T13:57:25.992Z,20.19
2023-05-06T14:00:29.084Z,19.99
2023-05-06T14:03:32.017Z,20.58
2023-05-06T14:06:34.513Z,20.15
2023-05-06T14:09:37.410Z,19.91
2023-05-06T14:12:40.631Z,19.78
2023-05-06T14:15:46.110Z,19.31
2023-05-06T14:18:48.991Z,19.06
2023-05-06T14:21:51.920Z,18.87
2023-05-06T14:24:55.577Z,18.86
2023-05-06T14:27:58.458Z,18.66
2023-05-06T14:31:00.988Z,18.39
2023-05-06T14:34:04.154Z,18.12
2023-05-06T14:37:07.997Z,17.77
2023-05-06T14:40:11.041Z,17.65
2023-05-06T14:43:13.844Z,17.28
2023-05-06T14:46:17.841Z,17.05
2023-05-06T14:49:21.188Z,16.77
2023-05-06T14:52:24.144Z,16.68
2023-05-06T14:55:26.696Z,16.76
2023-05-06T14:58:29.748Z,16.81
2023-05-06T15:01:33.590Z,17.03
2023-05-06T15:04:37.027Z,17.00
2023-05-06T15:07:39.580Z,17.12
2023-05-06T15:10:42.551Z,17.13
2023-05-06T15:13:45.325Z,16.91
2023-05-06T15:16:48.290Z,16.68
2023-05-06T15:19:51.591Z,16.91
2023-05-06T15:22:54.519Z,17.08
2023-05-06T15:25:58.166Z,17.38
2023-05-06T15:29:01.374Z,17.34
2023-05-06T15:32:03.996Z,17.42
2023-05-06T15:35:07.124Z,17.51
2023-05-06T15:38:09.676Z,17.77
2023-05-06T15:41:12.547Z,18.17
2023-05-06T15:44:16.399Z,18.25
2023-05-06T15:47:19.600Z,18.63
2023-05-06T15:50:32.495Z,18.84
2023-05-06T15:53:39.748Z,19.25
2023-05-06T15:56:42.184Z,19.45
2023-05-06T15:59:45.067Z,19.01
2023-05-06T16:02:47.850Z,20.12
2023-05-06T16:05:53.423Z,21.21
2023-05-06T16:08:56.012Z,22.74
2023-05-06T16:11:58.997Z,25.23
2023-05-06T16:15:03.260Z,23.93
2023-05-06T16:18:06.374Z,21.54
2023-05-06T16:21:09.157Z,22.29
2023-05-06T16:24:12.065Z,23.72
2023-05-06T16:27:16.008Z,25.03
2023-05-06T16:30:18.935Z,25.81
2023-05-06T16:33:23.858Z,25.24
2023-05-06T16:36:27.552Z,22.75
2023-05-06T16:39:30.328Z,21.27
2023-05-06T16:42:33.367Z,19.88
2023-05-06T16:45:36.318Z,19.14
2023-05-06T16:48:39.405Z,18.96
2023-05-06T16:51:41.917Z,18.58
2023-05-06T16:54:44.920Z,18.40
2023-05-06T16:57:47.534Z,18.35
2023-05-06T17:00:53.432Z,18.24
2023-05-06T17:03:56.460Z,18.20
2023-05-06T17:06:59.227Z,18.14
2023-05-06T17:10:01.736Z,18.12
2023-05-06T17:13:05.212Z,18.16
2023-05-06T17:16:07.882Z,18.07
2023-05-06T17:19:11.901Z,17.99
2023-05-06T17:22:14.886Z,17.89
2023-05-06T17:25:17.852Z,17.79
2023-05-06T17:28:20.610Z,17.71
2023-05-06T17:31:23.885Z,17.67
2023-05-06T17:34:26.591Z,17.65
2023-05-06T17:37:30.980Z,17.59
2023-05-06T17:40:33.685Z,17.52
2023-05-06T17:43:36.655Z,17.50
2023-05-06T17:46:39.193Z,17.46
2023-05-06T17:49:42.876Z,17.41
2023-05-06T17:52:48.834Z,17.36
2023-05-06T17:55:51.704Z,17.30
2023-05-06T17:58:54.253Z,17.26
2023-05-06T18:01:57.023Z,17.21
2023-05-06T18:04:59.968Z,17.20
2023-05-06T18:08:02.537Z,17.20
2023-05-06T18:11:06.016Z,17.17
2023-05-06T18:14:08.844Z,17.19
2023-05-06T18:17:11.671Z,17.22
2023-05-06T18:20:14.219Z,17.26
2023-05-06T18:23:17.086Z,17.25
2023-05-06T18:26:39.528Z,17.27
2023-05-06T18:29:42.875Z,17.28
2023-05-06T18:32:45.488Z,17.31
2023-05-06T18:35:48.664Z,17.29
2023-05-06T18:38:51.203Z,17.26
2023-05-06T18:41:53.953Z,17.27
2023-05-06T18:44:56.817Z,17.23
2023-05-06T18:47:59.736Z,17.22
2023-05-06T18:51:10.175Z,17.12
2023-05-06T18:54:14.269Z,17.03
2023-05-06T18:57:19.661Z,16.94
2023-05-06T19:00:22.688Z,16.86
2023-05-06T19:03:25.286Z,16.78
2023-05-06T19:06:28.157Z,16.71
2023-05-06T19:09:32.882Z,16.67
2023-05-06T19:12:36.267Z,16.65
2023-05-06T19:15:39.185Z,16.66
2023-05-06T19:18:42.127Z,16.63
2023-05-06T19:21:44.942Z,16.62
2023-05-06T19:24:47.826Z,16.70
2023-05-06T19:27:50.380Z,16.83
2023-05-06T19:30:53.498Z,16.82
2023-05-06T19:33:57.033Z,16.83
2023-05-06T19:36:59.893Z,16.86
2023-05-06T19:40:04.417Z,16.89
2023-05-06T19:43:07.300Z,16.95
2023-05-06T19:46:11.300Z,17.03
2023-05-06T19:49:14.187Z,17.08
2023-05-06T19:52:16.809Z,17.08
2023-05-06T19:55:20.598Z,17.04
2023-05-06T19:58:24.101Z,17.00
2023-05-06T20:01:27.223Z,17.04
2023-05-06T20:04:30.058Z,17.05
2023-05-06T20:07:33.684Z,17.03
2023-05-06T20:10:37.710Z,17.06
2023-05-06T20:13:40.330Z,17.09
2023-05-06T20:16:43.349Z,17.27
2023-05-06T20:19:46.786Z,17.30
2023-05-06T20:22:49.657Z,17.30
2023-05-06T20:25:53.161Z,17.27
2023-05-06T20:28:55.976Z,17.32
2023-05-06T20:31:59.679Z,17.24
2023-05-06T20:35:04.390Z,17.23
2023-05-06T20:38:09.294Z,17.14
2023-05-06T20:41:12.242Z,17.00
2023-05-06T20:44:15.139Z,16.95
2023-05-06T20:47:18.354Z,16.95
2023-05-06T20:50:21.099Z,16.91
2023-05-06T20:53:24.237Z,16.86
2023-05-06T20:56:27.285Z,16.86
2023-05-06T20:59:30.383Z,16.85
2023-05-06T21:02:35.840Z,16.82
2023-05-06T21:05:42.772Z,16.75
2023-05-06T21:08:46.485Z,16.78
2023-05-06T21:11:49.502Z,16.84
2023-05-06T21:14:52.025Z,16.84
2023-05-06T21:17:54.949Z,16.82
2023-05-06T21:20:57.591Z,16.77
2023-05-06T21:24:00.468Z,16.72
2023-05-06T21:27:03.094Z,16.63
2023-05-06T21:30:06.724Z,16.61
2023-05-06T21:33:11.139Z,16.55
2023-05-06T21:36:14.242Z,16.50
2023-05-06T21:39:16.763Z,16.33
2023-05-06T21:42:20.010Z,16.25
2023-05-06T21:45:22.841Z,16.20
2023-05-06T21:48:25.906Z,16.00
2023-05-06T21:51:32.369Z,15.89
2023-05-06T21:54:35.253Z,15.78
2023-05-06T21:57:38.740Z,15.72
2023-05-06T22:00:42.317Z,15.62
2023-05-06T22:03:46.112Z,15.50
2023-05-06T22:06:48.790Z,15.42
2023-05-06T22:09:51.765Z,15.39
2023-05-06T22:12:54.341Z,15.35
2023-05-06T22:15:57.670Z,15.34
2023-05-06T22:19:02.145Z,15.53
2023-05-06T22:22:05.007Z,15.74
2023-05-06T22:25:08.339Z,15.87
2023-05-06T22:28:11.591Z,15.87
2023-05-06T22:31:14.755Z,15.82
2023-05-06T22:34:17.729Z,15.77
2023-05-06T22:37:20.266Z,15.75
2023-05-06T22:40:23.320Z,15.80
2023-05-06T22:43:25.775Z,15.82
2023-05-06T22:46:29.176Z,15.76
2023-05-06T22:49:32.913Z,15.72
2023-05-06T22:52:35.718Z,15.74
2023-05-06T22:55:40.761Z,15.83
2023-05-06T22:58:43.644Z,15.81
2023-05-06T23:01:46.374Z,15.76
2023-05-06T23:04:49.354Z,15.72
2023-05-06T23:07:51.965Z,15.67
2023-05-06T23:10:54.866Z,15.63
2023-05-06T23:13:57.891Z,15.59
2023-05-06T23:17:00.925Z,15.57
2023-05-06T23:20:04.286Z,15.62
2023-05-06T23:23:10.553Z,15.78
2023-05-06T23:26:13.172Z,15.80
2023-05-06T23:29:16.302Z,15.78
2023-05-06T23:32:18.769Z,15.83
2023-05-06T23:35:22.208Z,15.75
2023-05-06T23:38:24.958Z,15.70
2023-05-06T23:41:27.791Z,15.67
2023-05-06T23:44:30.909Z,15.59
2023-05-06T23:47:33.952Z,15.49
2023-05-06T23:50:36.588Z,15.38
2023-05-06T23:53:40.251Z,15.25
2023-05-06T23:56:42.954Z,15.12
2023-05-06T23:59:45.952Z,15.00
